createdAt,value
2022-10-01T00:01:19.008Z,12.57
2022-10-01T00:03:47.870Z,12.50
2022-10-01T00:06:18.290Z,12.48
2022-10-01T00:08:48.793Z,12.57
2022-10-01T00:11:23.508Z,12.67
2022-10-01T00:13:51.077Z,12.66
2022-10-01T00:16:26.313Z,12.66
2022-10-01T00:18:53.930Z,12.69
2022-10-01T00:21:27.161Z,12.69
2022-10-01T00:23:58.877Z,12.68
2022-10-01T00:26:29.606Z,12.70
2022-10-01T00:28:59.515Z,12.67
2022-10-01T00:31:27.411Z,12.65
2022-10-01T00:33:55.528Z,12.60
2022-10-01T00:36:22.590Z,12.56
2022-10-01T00:38:50.100Z,12.52
2022-10-01T00:41:18.367Z,12.53
2022-10-01T00:43:48.340Z,12.50
2022-10-01T00:46:25.418Z,12.61
2022-10-01T00:48:58.880Z,12.69
2022-10-01T00:51:29.642Z,12.67
2022-10-01T00:54:06.294Z,12.73
2022-10-01T00:56:34.204Z,12.78
2022-10-01T00:59:01.958Z,12.80
2022-10-01T01:01:29.020Z,12.73
2022-10-01T01:03:56.910Z,12.72
2022-10-01T01:06:24.141Z,12.76
2022-10-01T01:08:55.159Z,12.78
2022-10-01T01:11:37.319Z,12.76
2022-10-01T01:14:13.537Z,12.76
2022-10-01T01:16:50.023Z,12.68
2022-10-01T01:19:50.541Z,12.64
2022-10-01T01:22:20.444Z,12.58
2022-10-01T01:24:51.343Z,12.59
2022-10-01T01:27:33.794Z,12.53
2022-10-01T01:30:10.871Z,12.57
2022-10-01T01:33:03.127Z,12.59
2022-10-01T01:35:47.192Z,12.65
2022-10-01T01:38:19.081Z,12.63
2022-10-01T01:40:51.412Z,12.55
2022-10-01T01:43:22.904Z,12.52
2022-10-01T01:45:51.703Z,12.52
2022-10-01T01:48:19.063Z,12.63
2022-10-01T01:51:05.202Z,12.62
2022-10-01T01:53:32.545Z,12.60
2022-10-01T01:56:00.440Z,12.56
2022-10-01T01:58:28.494Z,12.53
2022-10-01T02:00:55.808Z,12.57
2022-10-01T02:03:25.863Z,12.50
2022-10-01T02:06:04.959Z,12.55
2022-10-01T02:08:43.529Z,12.55
2022-10-01T02:11:36.982Z,12.47
2022-10-01T02:14:28.657Z,12.49
2022-10-01T02:17:03.669Z,12.44
2022-10-01T02:19:58.676Z,12.43
2022-10-01T02:22:42.722Z,12.40
2022-10-01T02:25:09.907Z,12.39
2022-10-01T02:27:40.685Z,12.42
2022-10-01T02:30:09.987Z,12.43
2022-10-01T02:32:39.634Z,12.47
2022-10-01T02:35:07.828Z,12.48
2022-10-01T02:37:36.685Z,12.48
2022-10-01T02:40:07.057Z,12.50
2022-10-01T02:42:36.187Z,12.47
2022-10-01T02:45:04.483Z,12.43
2022-10-01T02:47:43.640Z,12.46
2022-10-01T02:50:11.314Z,12.49
2022-10-01T02:52:41.155Z,12.51
2022-10-01T02:55:14.999Z,12.51
2022-10-01T02:57:42.345Z,12.52
2022-10-01T03:00:15.552Z,12.51
2022-10-01T03:02:42.979Z,12.44
2022-10-01T03:05:10.149Z,12.48
2022-10-01T03:07:37.952Z,12.43
2022-10-01T03:10:05.828Z,12.48
2022-10-01T03:12:33.194Z,12.47
2022-10-01T03:15:00.369Z,12.48
2022-10-01T03:17:27.750Z,12.54
2022-10-01T03:19:54.887Z,12.52
2022-10-01T03:22:22.898Z,12.56
2022-10-01T03:24:51.128Z,12.59
2022-10-01T03:27:19.212Z,12.58
2022-10-01T03:29:46.232Z,12.62
2022-10-01T03:32:14.332Z,12.65
2022-10-01T03:34:41.447Z,12.66
2022-10-01T03:37:08.771Z,12.67
2022-10-01T03:39:36.439Z,12.79
2022-10-01T03:42:05.898Z,12.80
2022-10-01T03:44:33.787Z,12.87
2022-10-01T03:47:01.089Z,12.90
2022-10-01T03:49:28.087Z,12.93
2022-10-01T03:51:55.273Z,12.95
2022-10-01T03:54:22.854Z,13.01
2022-10-01T03:56:49.882Z,12.95
2022-10-01T03:59:16.973Z,12.90
2022-10-01T04:01:44.326Z,12.94
2022-10-01T04:04:11.711Z,12.94
2022-10-01T04:06:38.693Z,12.86
2022-10-01T04:09:05.687Z,12.89
2022-10-01T04:11:33.153Z,12.95
2022-10-01T04:14:00.393Z,12.96
2022-10-01T04:16:27.659Z,13.01
2022-10-01T04:18:55.053Z,12.97
2022-10-01T04:21:22.027Z,12.99
2022-10-01T04:23:50.301Z,12.92
2022-10-01T04:26:19.166Z,12.87
2022-10-01T04:28:46.857Z,12.88
2022-10-01T04:31:27.168Z,12.90
2022-10-01T04:33:56.350Z,12.88
2022-10-01T04:36:24.466Z,12.90
2022-10-01T04:38:59.402Z,12.90
2022-10-01T04:41:30.876Z,12.94
2022-10-01T04:44:00.084Z,12.92
2022-10-01T04:46:29.768Z,12.98
2022-10-01T04:48:57.187Z,12.94
2022-10-01T04:51:24.614Z,12.97
2022-10-01T04:53:51.634Z,12.97
2022-10-01T04:56:18.909Z,12.93
2022-10-01T04:58:45.979Z,12.94
2022-10-01T05:01:13.068Z,12.96
2022-10-01T05:03:41.289Z,12.98
2022-10-01T05:06:08.343Z,13.03
2022-10-01T05:08:35.375Z,13.09
2022-10-01T05:11:03.178Z,13.10
2022-10-01T05:13:31.900Z,13.01
2022-10-01T05:15:59.464Z,13.09
2022-10-01T05:18:26.761Z,13.07
2022-10-01T05:20:53.739Z,13.08
2022-10-01T05:23:20.733Z,13.02
2022-10-01T05:25:48.008Z,13.06
2022-10-01T05:28:19.807Z,13.05
2022-10-01T05:30:50.995Z,13.03
2022-10-01T05:33:18.143Z,13.04
2022-10-01T05:35:45.143Z,13.02
2022-10-01T05:38:12.405Z,13.00
2022-10-01T05:40:39.382Z,12.98
2022-10-01T05:43:06.351Z,13.00
2022-10-01T05:45:33.839Z,13.02
2022-10-01T05:48:02.694Z,12.99
2022-10-01T05:50:33.786Z,13.02
2022-10-01T05:53:02.286Z,12.97
2022-10-01T05:55:34.498Z,12.93
2022-10-01T05:58:07.327Z,12.93
2022-10-01T06:00:34.702Z,12.93
2022-10-01T06:03:03.957Z,12.99
2022-10-01T06:05:32.672Z,13.03
2022-10-01T06:07:59.852Z,13.08
2022-10-01T06:10:30.610Z,13.13
2022-10-01T06:13:01.871Z,13.13
2022-10-01T06:15:29.988Z,13.20
2022-10-01T06:17:57.094Z,13.13
2022-10-01T06:20:24.166Z,13.10
2022-10-01T06:22:56.344Z,13.16
2022-10-01T06:25:24.099Z,13.27
2022-10-01T06:27:57.925Z,13.30
2022-10-01T06:30:29.204Z,13.38
2022-10-01T06:33:03.630Z,13.48
2022-10-01T06:35:34.667Z,13.48
2022-10-01T06:38:02.493Z,13.52
2022-10-01T06:40:30.280Z,13.59
2022-10-01T06:43:00.112Z,13.64
2022-10-01T06:45:29.036Z,13.57
2022-10-01T06:47:57.925Z,13.62
2022-10-01T06:50:25.301Z,13.54
2022-10-01T06:52:52.948Z,13.57
2022-10-01T06:55:29.007Z,13.53
2022-10-01T06:57:58.861Z,13.56
2022-10-01T07:00:27.568Z,13.57
2022-10-01T07:02:55.743Z,13.60
2022-10-01T07:05:24.022Z,13.66
2022-10-01T07:07:51.473Z,13.52
2022-10-01T07:10:21.774Z,13.58
2022-10-01T07:12:49.659Z,13.53
2022-10-01T07:15:18.697Z,13.55
2022-10-01T07:17:50.094Z,13.45
2022-10-01T07:20:18.633Z,13.46
2022-10-01T07:22:46.662Z,13.50
2022-10-01T07:25:14.228Z,13.47
2022-10-01T07:27:41.599Z,13.55
2022-10-01T07:30:08.997Z,13.68
2022-10-01T07:32:36.585Z,13.73
2022-10-01T07:35:05.169Z,13.83
2022-10-01T07:37:32.147Z,13.86
2022-10-01T07:39:59.128Z,13.97
2022-10-01T07:42:27.238Z,14.02
2022-10-01T07:44:55.301Z,14.05
2022-10-01T07:47:22.372Z,13.92
2022-10-01T07:49:49.662Z,13.87
2022-10-01T07:52:16.658Z,13.91
2022-10-01T07:54:43.635Z,13.85
2022-10-01T07:57:10.927Z,13.89
2022-10-01T07:59:39.189Z,13.98
2022-10-01T08:02:06.227Z,14.02
2022-10-01T08:04:51.859Z,14.11
2022-10-01T08:07:18.827Z,14.09
2022-10-01T08:09:46.126Z,14.05
2022-10-01T08:12:13.245Z,14.10
2022-10-01T08:14:40.217Z,14.26
2022-10-01T08:17:07.479Z,14.24
2022-10-01T08:19:34.477Z,14.34
2022-10-01T08:22:01.459Z,14.40
2022-10-01T08:24:28.816Z,14.31
2022-10-01T08:26:56.463Z,14.37
2022-10-01T08:29:23.607Z,14.42
2022-10-01T08:31:50.955Z,14.28
2022-10-01T08:34:18.303Z,14.34
2022-10-01T08:36:45.809Z,14.24
2022-10-01T08:39:13.798Z,14.42
2022-10-01T08:41:49.861Z,14.35
2022-10-01T08:44:28.030Z,14.38
2022-10-01T08:47:04.108Z,14.42
2022-10-01T08:49:37.206Z,14.58
2022-10-01T08:52:25.361Z,14.66
2022-10-01T08:54:59.102Z,14.69
2022-10-01T08:57:31.165Z,14.70
2022-10-01T09:00:01.347Z,14.73
2022-10-01T09:02:33.054Z,14.92
2022-10-01T09:05:03.123Z,15.09
2022-10-01T09:07:32.925Z,15.38
2022-10-01T09:10:28.223Z,15.69
2022-10-01T09:13:19.883Z,15.74
2022-10-01T09:15:53.093Z,16.14
2022-10-01T09:18:35.383Z,16.48
2022-10-01T09:21:18.080Z,16.78
2022-10-01T09:24:03.197Z,17.02
2022-10-01T09:26:31.190Z,16.82
2022-10-01T09:29:01.232Z,17.44
2022-10-01T09:31:41.617Z,17.79
2022-10-01T09:34:17.065Z,17.72
2022-10-01T09:37:21.546Z,17.86
2022-10-01T09:40:14.843Z,18.46
2022-10-01T09:42:42.881Z,18.70
2022-10-01T09:45:15.122Z,18.57
2022-10-01T09:47:44.260Z,18.72
2022-10-01T09:50:19.055Z,18.85
2022-10-01T09:52:48.781Z,18.86
2022-10-01T09:55:18.527Z,18.87
2022-10-01T09:57:59.576Z,18.83
2022-10-01T10:00:27.617Z,18.72
2022-10-01T10:02:56.431Z,18.42
2022-10-01T10:05:28.503Z,18.58
2022-10-01T10:08:05.906Z,18.79
2022-10-01T10:10:41.154Z,18.51
2022-10-01T10:13:11.275Z,18.31
2022-10-01T10:15:43.806Z,18.44
2022-10-01T10:18:19.260Z,18.47
2022-10-01T10:20:52.126Z,18.74
2022-10-01T10:23:29.045Z,19.33
2022-10-01T10:26:00.968Z,19.80
2022-10-01T10:28:30.516Z,19.84
2022-10-01T10:30:57.741Z,19.99
2022-10-01T10:33:26.333Z,19.86
2022-10-01T10:36:01.977Z,19.91
2022-10-01T10:38:32.349Z,19.92
2022-10-01T10:41:00.206Z,20.07
2022-10-01T10:43:31.378Z,19.91
2022-10-01T10:45:58.944Z,19.75
2022-10-01T10:48:34.643Z,19.76
2022-10-01T10:51:04.309Z,19.47
2022-10-01T10:53:46.739Z,19.53
2022-10-01T10:56:21.913Z,19.54
2022-10-01T10:58:50.586Z,19.65
2022-10-01T11:01:37.845Z,19.26
2022-10-01T11:04:20.703Z,19.54
2022-10-01T11:06:58.232Z,19.48
2022-10-01T11:09:29.995Z,19.47
2022-10-01T11:12:09.474Z,19.36
2022-10-01T11:14:43.651Z,19.21
2022-10-01T11:17:24.145Z,18.91
2022-10-01T11:20:08.953Z,18.60
2022-10-01T11:22:53.197Z,18.74
2022-10-01T11:25:26.002Z,19.00
2022-10-01T11:28:28.301Z,19.22
2022-10-01T11:31:06.397Z,19.08
2022-10-01T11:33:33.367Z,19.35
2022-10-01T11:36:06.093Z,19.54
2022-10-01T11:38:41.353Z,19.61
2022-10-01T11:41:20.234Z,19.57
2022-10-01T11:43:53.168Z,19.44
2022-10-01T11:46:32.539Z,19.59
2022-10-01T11:49:08.543Z,19.97
2022-10-01T11:51:43.391Z,20.07
2022-10-01T11:54:14.816Z,20.23
2022-10-01T11:57:04.864Z,20.43
2022-10-01T11:59:51.636Z,20.34
2022-10-01T12:02:47.119Z,20.30
2022-10-01T12:05:19.748Z,20.08
2022-10-01T12:08:11.816Z,19.96
2022-10-01T12:10:47.778Z,19.84
2022-10-01T12:13:34.557Z,20.03
2022-10-01T12:16:10.253Z,19.59
2022-10-01T12:18:46.637Z,19.46
2022-10-01T12:21:24.210Z,19.11
2022-10-01T12:24:04.064Z,18.91
2022-10-01T12:27:01.400Z,18.90
2022-10-01T12:29:43.669Z,18.68
2022-10-01T12:32:22.800Z,18.54
2022-10-01T12:35:21.162Z,18.46
2022-10-01T12:38:01.502Z,18.27
2022-10-01T12:40:30.892Z,18.03
2022-10-01T12:43:01.945Z,17.90
2022-10-01T12:45:43.794Z,17.93
2022-10-01T12:48:22.119Z,18.23
2022-10-01T12:51:22.261Z,18.60
2022-10-01T12:54:34.120Z,18.84
2022-10-01T12:57:03.744Z,19.11
2022-10-01T12:59:38.530Z,18.83
2022-10-01T13:02:43.423Z,19.03
2022-10-01T13:05:25.778Z,19.35
2022-10-01T13:08:15.866Z,19.75
2022-10-01T13:10:45.617Z,19.78
2022-10-01T13:13:27.037Z,19.68
2022-10-01T13:16:03.246Z,19.57
2022-10-01T13:19:06.125Z,19.43
2022-10-01T13:21:57.446Z,19.38
2022-10-01T13:24:32.886Z,19.21
2022-10-01T13:27:05.549Z,19.04
2022-10-01T13:29:32.500Z,19.02
2022-10-01T13:32:02.313Z,18.91
2022-10-01T13:34:39.940Z,18.71
2022-10-01T13:37:14.941Z,18.58
2022-10-01T13:39:43.462Z,17.82
2022-10-01T13:42:17.326Z,17.29
2022-10-01T13:44:44.321Z,17.36
2022-10-01T13:47:13.347Z,17.31
2022-10-01T13:49:42.881Z,17.37
2022-10-01T13:52:19.852Z,17.46
2022-10-01T13:54:52.578Z,17.30
2022-10-01T13:57:37.492Z,17.34
2022-10-01T14:00:17.086Z,17.39
2022-10-01T14:02:57.983Z,17.11
2022-10-01T14:05:40.503Z,16.89
2022-10-01T14:08:27.240Z,16.99
2022-10-01T14:11:43.109Z,16.99
2022-10-01T14:14:39.651Z,17.04
2022-10-01T14:17:07.772Z,17.19
2022-10-01T14:19:35.230Z,16.97
2022-10-01T14:22:17.655Z,16.93
2022-10-01T14:25:05.636Z,17.10
2022-10-01T14:27:38.684Z,17.28
2022-10-01T14:30:07.585Z,17.15
2022-10-01T14:32:44.362Z,16.85
2022-10-01T14:35:56.048Z,16.78
2022-10-01T14:38:23.120Z,16.80
2022-10-01T14:40:51.206Z,16.76
2022-10-01T14:43:20.593Z,16.76
2022-10-01T14:45:52.094Z,16.80
2022-10-01T14:48:19.772Z,16.69
2022-10-01T14:50:49.674Z,16.47
2022-10-01T14:53:18.437Z,16.18
2022-10-01T14:55:47.550Z,16.02
2022-10-01T14:58:28.614Z,15.89
2022-10-01T15:00:56.557Z,15.74
2022-10-01T15:03:23.965Z,15.64
2022-10-01T15:05:51.209Z,15.65
2022-10-01T15:08:23.725Z,15.56
2022-10-01T15:10:53.347Z,15.53
2022-10-01T15:13:24.741Z,15.47
2022-10-01T15:15:51.929Z,15.38
2022-10-01T15:18:20.444Z,15.21
2022-10-01T15:20:59.615Z,15.18
2022-10-01T15:23:28.876Z,15.02
2022-10-01T15:25:58.176Z,14.94
2022-10-01T15:28:32.860Z,14.86
2022-10-01T15:31:05.324Z,14.85
2022-10-01T15:33:34.285Z,14.84
2022-10-01T15:36:04.384Z,14.82
2022-10-01T15:38:32.541Z,14.77
2022-10-01T15:41:19.867Z,14.63
2022-10-01T15:43:49.610Z,14.61
2022-10-01T15:46:29.212Z,14.55
2022-10-01T15:49:13.061Z,14.53
2022-10-01T15:52:12.156Z,14.44
2022-10-01T15:54:41.470Z,14.45
2022-10-01T15:57:09.551Z,14.45
2022-10-01T15:59:36.837Z,14.42
2022-10-01T16:02:08.807Z,14.30
2022-10-01T16:04:36.254Z,14.22
2022-10-01T16:07:03.425Z,14.12
2022-10-01T16:09:30.901Z,14.06
2022-10-01T16:12:10.365Z,14.07
2022-10-01T16:14:43.893Z,14.03
2022-10-01T16:17:17.400Z,13.97
2022-10-01T16:19:52.247Z,13.96
2022-10-01T16:22:26.982Z,13.92
2022-10-01T16:24:57.614Z,13.92
2022-10-01T16:27:31.587Z,13.82
2022-10-01T16:30:09.574Z,13.72
2022-10-01T16:32:36.826Z,13.66
2022-10-01T16:35:23.418Z,13.58
2022-10-01T16:37:55.089Z,13.51
2022-10-01T16:40:25.446Z,13.52
2022-10-01T16:42:53.172Z,13.48
2022-10-01T16:45:25.528Z,13.49
2022-10-01T16:47:53.573Z,13.41
2022-10-01T16:50:21.761Z,13.40
2022-10-01T16:52:55.917Z,13.37
2022-10-01T16:55:36.410Z,13.36
2022-10-01T16:58:04.745Z,13.32
2022-10-01T17:00:32.890Z,13.34
2022-10-01T17:03:00.080Z,13.28
2022-10-01T17:05:30.415Z,13.25
2022-10-01T17:08:00.891Z,13.22
2022-10-01T17:10:29.039Z,13.20
2022-10-01T17:12:56.617Z,13.16
2022-10-01T17:15:26.975Z,13.11
2022-10-01T17:17:55.188Z,13.09
2022-10-01T17:20:23.614Z,13.11
2022-10-01T17:22:51.753Z,13.10
2022-10-01T17:25:24.217Z,13.03
2022-10-01T17:27:51.735Z,13.04
2022-10-01T17:30:20.824Z,13.00
2022-10-01T17:32:47.807Z,12.95
2022-10-01T17:35:15.733Z,12.91
2022-10-01T17:37:43.038Z,12.93
2022-10-01T17:40:10.749Z,12.91
2022-10-01T17:42:38.297Z,12.89
2022-10-01T17:45:08.328Z,12.89
2022-10-01T17:47:35.814Z,12.92
2022-10-01T17:50:04.032Z,12.91
2022-10-01T17:52:32.483Z,12.85
2022-10-01T17:54:59.467Z,12.81
2022-10-01T17:57:26.711Z,12.73
2022-10-01T17:59:53.795Z,12.70
2022-10-01T18:02:40.279Z,12.65
2022-10-01T18:05:09.599Z,12.59
2022-10-01T18:07:37.263Z,12.59
2022-10-01T18:10:05.992Z,12.57
2022-10-01T18:12:33.885Z,12.54
2022-10-01T18:15:01.504Z,12.50
2022-10-01T18:17:29.218Z,12.48
2022-10-01T18:19:57.199Z,12.42
2022-10-01T18:22:24.718Z,12.41
2022-10-01T18:24:51.759Z,12.40
2022-10-01T18:27:19.146Z,12.35
2022-10-01T18:29:46.126Z,12.32
2022-10-01T18:32:17.585Z,12.29
2022-10-01T18:35:04.115Z,12.25
2022-10-01T18:37:51.679Z,12.24
2022-10-01T18:40:32.624Z,12.20
2022-10-01T18:43:20.852Z,12.19
2022-10-01T18:46:19.858Z,12.13
2022-10-01T18:49:14.462Z,12.08
2022-10-01T18:51:50.954Z,12.10
2022-10-01T18:54:45.616Z,12.10
2022-10-01T18:57:45.200Z,12.10
2022-10-01T19:00:15.238Z,12.17
2022-10-01T19:02:53.454Z,12.18
2022-10-01T19:05:35.052Z,12.13
2022-10-01T19:08:08.087Z,12.01
2022-10-01T19:10:41.665Z,11.99
2022-10-01T19:13:21.285Z,11.99
2022-10-01T19:15:57.364Z,11.96
2022-10-01T19:18:33.098Z,11.97
2022-10-01T19:21:04.547Z,11.95
2022-10-01T19:23:46.881Z,11.93
2022-10-01T19:26:24.249Z,11.92
2022-10-01T19:29:12.744Z,11.93
2022-10-01T19:31:53.011Z,11.97
2022-10-01T19:34:34.739Z,12.02
2022-10-01T19:37:16.381Z,12.00
2022-10-01T19:39:44.596Z,12.01
2022-10-01T19:42:19.147Z,12.03
2022-10-01T19:45:00.663Z,12.00
2022-10-01T19:47:37.021Z,12.03
2022-10-01T19:50:17.546Z,12.04
2022-10-01T19:52:48.283Z,12.01
2022-10-01T19:55:18.180Z,12.07
2022-10-01T19:57:45.979Z,12.03
2022-10-01T20:00:19.617Z,12.03
2022-10-01T20:02:54.002Z,12.03
2022-10-01T20:05:23.313Z,12.03
2022-10-01T20:08:05.597Z,12.01
2022-10-01T20:10:47.178Z,12.03
2022-10-01T20:13:56.350Z,12.06
2022-10-01T20:16:30.577Z,12.06
2022-10-01T20:19:13.844Z,12.03
2022-10-01T20:21:50.946Z,11.99
2022-10-01T20:24:39.805Z,12.02
2022-10-01T20:27:47.088Z,12.01
2022-10-01T20:30:20.857Z,12.00
2022-10-01T20:33:02.897Z,12.01
2022-10-01T20:35:41.222Z,12.04
2022-10-01T20:38:13.532Z,12.05
2022-10-01T20:40:49.640Z,12.06
2022-10-01T20:43:31.389Z,12.07
2022-10-01T20:46:03.287Z,12.12
2022-10-01T20:48:37.668Z,12.14
2022-10-01T20:51:55.376Z,12.15
2022-10-01T20:54:27.241Z,12.18
2022-10-01T20:57:15.458Z,12.16
2022-10-01T20:59:44.327Z,12.22
2022-10-01T21:02:50.348Z,12.20
2022-10-01T21:06:06.977Z,12.16
2022-10-01T21:08:57.169Z,12.10
2022-10-01T21:11:34.540Z,12.05
2022-10-01T21:14:07.587Z,11.98
2022-10-01T21:17:24.750Z,11.96
2022-10-01T21:19:58.658Z,11.90
2022-10-01T21:22:46.408Z,11.79
2022-10-01T21:25:25.845Z,11.69
2022-10-01T21:28:09.325Z,11.68
2022-10-01T21:30:53.023Z,11.62
2022-10-01T21:33:26.661Z,11.52
2022-10-01T21:35:59.051Z,11.48
2022-10-01T21:38:43.650Z,11.40
2022-10-01T21:41:39.750Z,11.35
2022-10-01T21:44:17.732Z,11.29
2022-10-01T21:47:05.972Z,11.23
2022-10-01T21:49:51.734Z,11.25
2022-10-01T21:52:24.816Z,11.24
2022-10-01T21:55:03.839Z,11.18
2022-10-01T21:58:10.595Z,11.19
2022-10-01T22:00:37.621Z,11.13
2022-10-01T22:03:19.701Z,11.15
2022-10-01T22:05:58.968Z,11.10
2022-10-01T22:08:49.241Z,11.08
2022-10-01T22:11:23.257Z,11.01
2022-10-01T22:13:58.141Z,10.97
2022-10-01T22:16:29.054Z,10.96
2022-10-01T22:18:57.944Z,10.94
2022-10-01T22:21:30.866Z,10.97
2022-10-01T22:24:07.018Z,10.90
2022-10-01T22:26:38.826Z,10.93
2022-10-01T22:29:12.105Z,10.92
2022-10-01T22:31:39.995Z,10.86
2022-10-01T22:34:18.487Z,10.82
2022-10-01T22:37:05.282Z,10.79
2022-10-01T22:39:37.493Z,10.79
2022-10-01T22:42:14.257Z,10.73
2022-10-01T22:44:41.565Z,10.71
2022-10-01T22:47:47.659Z,10.64
2022-10-01T22:50:31.842Z,10.58
2022-10-01T22:53:16.783Z,10.54
2022-10-01T22:55:54.972Z,10.47
2022-10-01T22:58:25.022Z,10.39
2022-10-01T23:00:52.353Z,10.39
2022-10-01T23:03:35.521Z,10.39
2022-10-01T23:06:11.665Z,10.41
2022-10-01T23:08:41.224Z,10.43
2022-10-01T23:11:34.992Z,10.45
2022-10-01T23:14:09.345Z,10.40
2022-10-01T23:16:39.929Z,10.47
2022-10-01T23:19:20.876Z,10.53
2022-10-01T23:21:58.869Z,10.56
2022-10-01T23:24:38.292Z,10.65
2022-10-01T23:27:33.809Z,10.78
2022-10-01T23:30:14.419Z,10.83
2022-10-01T23:33:10.511Z,10.88
2022-10-01T23:35:44.055Z,10.92
2022-10-01T23:38:38.408Z,10.93
2022-10-01T23:41:21.178Z,10.91
2022-10-01T23:43:49.200Z,10.93
2022-10-01T23:46:21.097Z,10.92
2022-10-01T23:48:54.120Z,10.90
2022-10-01T23:51:34.158Z,10.88
2022-10-01T23:54:05.406Z,10.86
2022-10-01T23:56:50.666Z,10.87
2022-10-01T23:59:42.436Z,10.85
